Time;durP1;ratioP1;P1;durP2;ratioP2;P2;SDS_P1;SDS_P2;PMS_P1;PMS_P2;Temp;Humidity;BMP_temperature;BMP_pressure;BME280_temperature;BME280_humidity;BME280_pressure;Samples;Min_cycle;Max_cycle;Signal;HPM_P1;HPM_P2
2024/04/15 00:03:06;;;;;;;28.47;4.00;;;;;;;9.90;100.00;101396.72;6335338;27;20257;-70
2024/04/15 00:06:25;;;;;;;6.90;3.20;;;;;;;9.87;100.00;101396.06;6344186;27;20512;-71
2024/04/15 00:09:48;;;;;;;9.83;3.40;;;;;;;9.85;100.00;101392.63;6359376;27;20783;-71
2024/04/15 00:13:11;;;;;;;5.63;2.90;;;;;;;10.09;100.00;101402.38;6354062;27;20341;-71
2024/04/15 00:16:33;;;;;;;4.73;2.80;;;;;;;9.75;100.00;101391.66;6338816;27;20648;-71
2024/04/15 00:19:53;;;;;;;9.40;3.47;;;;;;;9.82;100.00;101384.81;6353065;27;20272;-70
2024/04/15 00:23:17;;;;;;;4.90;2.70;;;;;;;9.95;100.00;101374.81;6359667;27;20273;-71
2024/04/15 00:26:37;;;;;;;4.97;2.37;;;;;;;9.82;100.00;101372.22;6351375;27;20266;-70
2024/04/15 00:30:04;;;;;;;8.73;3.30;;;;;;;9.64;100.00;101363.72;6358214;27;20265;-70
2024/04/15 00:33:25;;;;;;;11.30;2.93;;;;;;;9.70;100.00;101358.84;6344350;27;20296;-71
2024/04/15 00:36:47;;;;;;;6.07;3.27;;;;;;;9.76;100.00;101355.69;6355578;27;20277;-71
2024/04/15 00:40:11;;;;;;;8.50;3.00;;;;;;;9.82;100.00;101357.88;6354030;27;20892;-69
2024/04/15 00:43:31;;;;;;;4.67;2.10;;;;;;;10.01;100.00;101358.19;6385373;27;20265;-70
2024/04/15 00:46:56;;;;;;;13.63;3.67;;;;;;;9.93;100.00;101342.59;6350635;27;20329;-70
2024/04/15 00:50:19;;;;;;;9.17;3.83;;;;;;;9.79;100.00;101334.75;6351509;27;20261;-70
2024/04/15 00:53:42;;;;;;;8.40;3.23;;;;;;;9.66;100.00;101337.53;6363502;27;20329;-71
2024/04/15 00:57:03;;;;;;;9.13;3.20;;;;;;;9.80;100.00;101327.53;6349869;27;20289;-71
2024/04/15 01:00:25;;;;;;;7.17;2.77;;;;;;;9.72;100.00;101327.28;6306571;27;20274;-70
2024/04/15 01:03:50;;;;;;;12.63;3.23;;;;;;;9.98;100.00;101312.63;6315375;27;20278;-70
2024/04/15 01:07:10;;;;;;;7.87;2.97;;;;;;;10.14;100.00;101303.22;6351130;27;20272;-70
2024/04/15 01:10:33;;;;;;;6.87;3.73;;;;;;;9.83;100.00;101294.97;6346670;27;20287;-70
2024/04/15 01:13:56;;;;;;;10.10;3.27;;;;;;;10.00;100.00;101287.28;6330347;27;20268;-70
2024/04/15 01:17:15;;;;;;;7.97;3.37;;;;;;;9.87;100.00;101283.84;6347301;27;20546;-70
2024/04/15 01:20:40;;;;;;;5.90;2.53;;;;;;;9.99;100.00;101285.56;6347987;27;20695;-71
2024/04/15 01:24:04;;;;;;;6.00;3.00;;;;;;;10.00;100.00;101276.50;6358958;27;20284;-71
2024/04/15 01:27:26;;;;;;;7.10;3.37;;;;;;;9.94;100.00;101276.13;6357023;27;20285;-70
2024/04/15 01:30:46;;;;;;;5.87;2.80;;;;;;;9.86;100.00;101265.97;6344462;27;20281;-72
2024/04/15 01:34:09;;;;;;;16.27;3.33;;;;;;;9.84;100.00;101265.25;6358545;27;20261;-71
2024/04/15 01:37:29;;;;;;;6.23;2.87;;;;;;;9.70;100.00;101256.56;6350963;27;21599;-70
2024/04/15 01:40:55;;;;;;;7.00;3.60;;;;;;;9.73;100.00;101242.84;6347373;27;20348;-70
2024/04/15 01:44:14;;;;;;;10.43;3.37;;;;;;;9.73;100.00;101229.38;6374642;27;20261;-70
2024/04/15 01:47:37;;;;;;;3.57;2.97;;;;;;;9.71;100.00;101242.09;6346326;27;20269;-71
2024/04/15 01:50:59;;;;;;;6.07;2.60;;;;;;;9.62;100.00;101235.59;6344049;27;20546;-70
2024/04/15 01:54:22;;;;;;;6.60;3.37;;;;;;;9.61;100.00;101232.09;6357349;27;20281;-70
2024/04/15 01:57:44;;;;;;;7.97;3.30;;;;;;;9.52;100.00;101211.28;6351246;27;20277;-70
2024/04/15 02:01:06;;;;;;;10.43;3.93;;;;;;;9.38;100.00;101213.34;6323414;27;20772;-71
2024/04/15 02:04:26;;;;;;;4.20;2.57;;;;;;;9.25;100.00;101213.44;6355257;27;20269;-70
2024/04/15 02:07:48;;;;;;;13.67;2.77;;;;;;;9.18;100.00;101220.25;6343775;27;20261;-70
2024/04/15 02:11:11;;;;;;;10.70;3.73;;;;;;;8.79;100.00;101218.81;6342151;27;20320;-70
2024/04/15 02:14:33;;;;;;;6.93;2.73;;;;;;;8.68;100.00;101231.31;6337409;27;20262;-71
2024/04/15 02:17:55;;;;;;;7.70;3.57;;;;;;;8.53;100.00;101236.00;6341443;27;20285;-71
2024/04/15 02:21:18;;;;;;;9.93;3.30;;;;;;;8.40;100.00;101237.06;6373266;27;20281;-70
2024/04/15 02:24:38;;;;;;;14.00;4.30;;;;;;;8.36;100.00;101225.69;6362546;27;20269;-69
2024/04/15 02:28:00;;;;;;;6.63;3.43;;;;;;;8.20;100.00;101232.28;6367910;27;20465;-71
2024/04/15 02:31:25;;;;;;;7.40;3.30;;;;;;;8.12;100.00;101226.56;6367262;27;20300;-70
2024/04/15 02:34:48;;;;;;;3.60;2.63;;;;;;;7.84;100.00;101231.25;6360037;27;20289;-71
2024/04/15 02:38:08;;;;;;;4.13;2.80;;;;;;;7.80;100.00;101220.88;6354070;27;20277;-70
2024/04/15 02:41:30;;;;;;;9.00;2.70;;;;;;;7.69;100.00;101215.41;6345159;27;20467;-70
2024/04/15 02:44:52;;;;;;;6.53;2.23;;;;;;;7.76;100.00;101209.47;6368503;27;20281;-70
2024/04/15 02:48:20;;;;;;;10.20;2.93;;;;;;;7.56;100.00;101206.50;6362994;27;20303;-70
2024/04/15 02:51:40;;;;;;;11.50;4.93;;;;;;;7.62;100.00;101192.66;6354574;27;20260;-71
2024/04/15 02:55:02;;;;;;;11.97;3.47;;;;;;;7.56;100.00;101201.16;6365972;27;20273;-70
2024/04/15 02:58:22;;;;;;;5.10;2.30;;;;;;;7.66;100.00;101186.97;6376272;27;20284;-70
2024/04/15 03:01:44;;;;;;;5.13;3.40;;;;;;;7.66;100.00;101186.97;6355469;27;20375;-71
2024/04/15 03:05:09;;;;;;;11.43;3.00;;;;;;;7.69;100.00;101177.84;6358659;27;20304;-69
2024/04/15 03:08:29;;;;;;;4.70;3.20;;;;;;;7.65;100.00;101174.53;6364760;27;20281;-70
2024/04/15 03:11:52;;;;;;;9.90;3.37;;;;;;;7.74;100.00;101171.16;6358357;27;20624;-70
2024/04/15 03:15:11;;;;;;;9.63;3.10;;;;;;;7.74;100.00;101163.13;6376152;27;21087;-70
2024/04/15 03:18:33;;;;;;;7.90;2.97;;;;;;;7.62;100.00;101157.78;6354091;27;20261;-70
2024/04/15 03:21:59;;;;;;;10.00;3.10;;;;;;;7.56;100.00;101160.91;6350274;27;20603;-70
2024/04/15 03:25:19;;;;;;;14.60;4.63;;;;;;;7.54;100.00;101144.94;6354737;27;21099;-71
2024/04/15 03:28:42;;;;;;;5.20;3.50;;;;;;;7.57;100.00;101147.38;6360822;27;20395;-70
2024/04/15 03:32:04;;;;;;;6.57;2.67;;;;;;;7.58;100.00;101150.94;6341088;27;20265;-71
2024/04/15 03:35:27;;;;;;;13.50;3.73;;;;;;;7.56;100.00;101143.00;6376496;27;20735;-70
2024/04/15 03:38:52;;;;;;;6.57;3.97;;;;;;;7.57;100.00;101141.19;6355387;27;20270;-70
2024/04/15 03:42:15;;;;;;;11.93;4.50;;;;;;;7.71;100.00;101139.22;6352532;27;20292;-70
2024/04/15 03:45:37;;;;;;;7.50;3.70;;;;;;;7.49;100.00;101130.16;6345134;27;20265;-70
2024/04/15 03:48:58;;;;;;;4.03;2.67;;;;;;;7.47;100.00;101118.69;6350277;27;20284;-70
2024/04/15 03:52:21;;;;;;;4.43;3.13;;;;;;;7.46;100.00;101120.50;6352811;27;20285;-70
2024/04/15 03:55:54;;;;;;;9.30;3.77;;;;;;;7.48;100.00;101113.19;6348345;27;20270;-70
2024/04/15 03:59:17;;;;;;;8.53;3.20;;;;;;;7.58;100.00;101105.31;6358275;27;20496;-71
2024/04/15 04:02:36;;;;;;;15.47;2.97;;;;;;;7.48;100.00;101097.09;6345167;27;20372;-70
2024/04/15 04:05:58;;;;;;;7.43;3.23;;;;;;;7.51;100.00;101096.84;6353384;27;20272;-70
2024/04/15 04:09:19;;;;;;;8.93;2.70;;;;;;;7.53;100.00;101094.91;6358593;27;20281;-70
2024/04/15 04:12:44;;;;;;;5.53;2.20;;;;;;;7.51;100.00;101094.19;6351423;27;20277;-70
2024/04/15 04:16:07;;;;;;;10.00;2.83;;;;;;;7.58;100.00;101082.03;6351307;27;20273;-70
2024/04/15 04:19:30;;;;;;;6.30;3.30;;;;;;;7.60;100.00;101079.25;6357933;27;20277;-70
2024/04/15 04:22:49;;;;;;;7.97;2.93;;;;;;;7.64;100.00;101076.22;6350398;27;20496;-70
2024/04/15 04:26:12;;;;;;;6.67;3.63;;;;;;;7.58;100.00;101074.00;6353676;27;20516;-70
2024/04/15 04:29:38;;;;;;;7.13;2.77;;;;;;;7.64;100.00;101068.19;6364548;27;20652;-71
2024/04/15 04:33:01;;;;;;;6.47;2.20;;;;;;;7.88;100.00;101061.00;6335729;27;20269;-70
2024/04/15 04:36:20;;;;;;;4.83;2.80;;;;;;;7.85;100.00;101055.00;6356120;27;21007;-71
2024/04/15 04:39:43;;;;;;;11.50;3.23;;;;;;;7.79;100.00;101044.72;6352924;27;20281;-71
2024/04/15 04:43:03;;;;;;;5.27;2.73;;;;;;;7.81;100.00;101032.03;6361749;27;20272;-71
2024/04/15 04:46:28;;;;;;;7.50;3.50;;;;;;;7.91;100.00;101038.44;6347848;27;20316;-70
2024/04/15 04:49:51;;;;;;;18.47;14.80;;;;;;;8.04;100.00;101042.78;6355038;27;20274;-72
2024/04/15 04:53:13;;;;;;;10.20;4.07;;;;;;;7.96;100.00;101042.50;6321621;27;20279;-69
2024/04/15 04:56:36;;;;;;;11.90;3.67;;;;;;;8.06;100.00;101037.28;6357871;27;20273;-70
2024/04/15 04:59:56;;;;;;;10.23;2.80;;;;;;;8.23;100.00;101010.00;6379312;27;20285;-70
2024/04/15 05:03:21;;;;;;;17.27;4.63;;;;;;;8.20;100.00;100999.47;6354410;27;20277;-70
2024/04/15 05:06:43;;;;;;;5.83;2.63;;;;;;;8.49;100.00;101002.66;6345643;27;20258;-72
2024/04/15 05:10:06;;;;;;;7.20;3.90;;;;;;;8.50;100.00;101010.59;6358329;27;20290;-70
2024/04/15 05:13:27;;;;;;;10.10;3.50;;;;;;;8.25;100.00;101008.09;6361796;27;20273;-71
2024/04/15 05:16:49;;;;;;;8.23;3.40;;;;;;;8.35;100.00;101009.09;6357702;27;20265;-70
2024/04/15 05:20:14;;;;;;;8.27;4.37;;;;;;;8.43;100.00;101009.34;6350319;27;20269;-69
2024/04/15 05:23:34;;;;;;;15.73;4.13;;;;;;;8.52;100.00;101002.41;6361842;27;20529;-71
2024/04/15 05:26:56;;;;;;;13.03;4.30;;;;;;;8.53;100.00;101002.25;6351566;27;20273;-68
2024/04/15 05:30:19;;;;;;;7.27;4.33;;;;;;;8.72;100.00;100991.78;6364865;27;20282;-67
2024/04/15 05:33:42;;;;;;;6.93;3.23;;;;;;;9.28;100.00;100994.44;6352204;27;20264;-68
2024/04/15 05:37:07;;;;;;;7.53;3.07;;;;;;;9.58;100.00;100991.91;6351169;27;20256;-68
2024/04/15 05:40:30;;;;;;;7.87;5.03;;;;;;;9.83;100.00;100985.34;6359115;27;20476;-67
2024/04/15 05:43:53;;;;;;;14.20;3.93;;;;;;;9.77;100.00;100977.78;6376808;27;20265;-68
2024/04/15 05:47:13;;;;;;;13.10;4.97;;;;;;;9.78;100.00;100972.28;6338866;27;20292;-68
2024/04/15 05:50:35;;;;;;;5.87;3.83;;;;;;;10.25;100.00;100977.22;6340860;27;20278;-68
2024/04/15 05:53:58;;;;;;;14.07;4.60;;;;;;;10.95;100.00;100982.69;6361914;27;20300;-67
2024/04/15 05:57:20;;;;;;;11.63;4.60;;;;;;;10.28;100.00;100966.16;6344382;27;20265;-68
2024/04/15 06:00:40;;;;;;;11.27;4.87;;;;;;;9.94;100.00;100958.38;6355334;27;21522;-69
2024/04/15 06:04:02;;;;;;;3.97;3.30;;;;;;;9.84;100.00;100957.44;6350601;27;20280;-70
2024/04/15 06:07:24;;;;;;;6.20;2.90;;;;;;;9.55;100.00;100954.50;6378091;27;20273;-71
2024/04/15 06:10:49;;;;;;;5.97;3.63;;;;;;;9.27;100.00;100953.25;6348745;27;20330;-70
2024/04/15 06:14:11;;;;;;;5.53;2.70;;;;;;;9.50;100.00;100945.94;6353184;27;20328;-71
2024/04/15 06:17:30;;;;;;;8.93;2.93;;;;;;;9.10;100.00;100926.00;6339682;27;20288;-69
2024/04/15 06:20:53;;;;;;;5.53;3.53;;;;;;;9.54;100.00;100928.56;6337379;27;20272;-70
2024/04/15 06:24:13;;;;;;;5.80;2.87;;;;;;;9.54;100.00;100915.09;6357476;27;22768;-68
2024/04/15 06:27:37;;;;;;;8.90;4.83;;;;;;;9.37;100.00;100903.06;6349525;27;20272;-66
2024/04/15 06:30:57;;;;;;;4.17;2.53;;;;;;;9.09;100.00;100897.41;6338272;27;20257;-66
2024/04/15 06:34:21;;;;;;;10.10;3.27;;;;;;;9.17;100.00;100890.44;6360614;27;20285;-68
2024/04/15 06:37:41;;;;;;;6.27;2.40;;;;;;;9.53;100.00;100881.97;6342812;27;20269;-71
2024/04/15 06:41:03;;;;;;;9.13;3.60;;;;;;;9.42;100.00;100890.09;6353734;27;20287;-70
2024/04/15 06:44:31;;;;;;;4.33;2.10;;;;;;;9.76;100.00;100876.47;6357538;27;20281;-68
2024/04/15 06:47:53;;;;;;;7.97;3.13;;;;;;;9.84;100.00;100872.16;6346063;27;20284;-68
2024/04/15 06:51:15;;;;;;;8.07;4.47;;;;;;;9.72;100.00;100867.78;6357733;27;20285;-69
2024/04/15 06:54:36;;;;;;;7.07;2.70;;;;;;;9.78;100.00;100850.28;6358160;27;20470;-68
2024/04/15 06:58:00;;;;;;;11.13;3.43;;;;;;;10.06;100.00;100838.81;6349918;27;20272;-69
2024/04/15 07:01:23;;;;;;;4.57;2.43;;;;;;;9.68;100.00;100830.53;6366985;27;20524;-68
2024/04/15 07:04:46;;;;;;;4.63;2.63;;;;;;;9.36;100.00;100838.63;6359608;27;20332;-68
2024/04/15 07:08:09;;;;;;;4.57;3.33;;;;;;;9.56;100.00;100829.72;6357806;27;20261;-67
2024/04/15 07:11:32;;;;;;;5.00;2.83;;;;;;;9.61;100.00;100820.28;6356298;27;20257;-71
2024/04/15 07:14:52;;;;;;;20.03;3.37;;;;;;;10.01;100.00;100819.53;6360736;27;20555;-69
2024/04/15 07:18:17;;;;;;;5.60;3.10;;;;;;;9.82;100.00;100822.09;6351658;27;20313;-71
2024/04/15 07:21:37;;;;;;;6.67;2.73;;;;;;;9.88;100.00;100817.03;6337479;27;20715;-68
2024/04/15 07:25:02;;;;;;;11.47;3.70;;;;;;;9.57;100.00;100820.69;6370790;27;20273;-69
2024/04/15 07:28:25;;;;;;;4.43;2.67;;;;;;;9.40;100.00;100810.50;6380926;27;20534;-69
2024/04/15 07:31:45;;;;;;;7.43;3.27;;;;;;;10.01;100.00;100798.81;6304913;27;20313;-73
2024/04/15 07:35:11;;;;;;;3.33;2.30;;;;;;;10.21;100.00;100791.72;6357766;27;20340;-69
2024/04/15 07:38:31;;;;;;;9.60;3.53;;;;;;;10.71;100.00;100779.09;6315917;27;24259;-71
2024/04/15 07:41:53;;;;;;;7.30;3.33;;;;;;;10.48;100.00;100781.16;6340436;27;20321;-68
2024/04/15 07:45:13;;;;;;;5.80;3.00;;;;;;;10.17;100.00;100777.66;6317838;27;20273;-68
2024/04/15 07:48:36;;;;;;;2.83;1.60;;;;;;;9.84;100.00;100777.91;6344082;27;20664;-68
2024/04/15 07:51:58;;;;;;;4.80;2.63;;;;;;;10.30;100.00;100766.66;6371503;27;20269;-70
2024/04/15 07:55:21;;;;;;;9.33;2.97;;;;;;;10.40;100.00;100765.69;6355720;27;20541;-71
2024/04/15 07:58:41;;;;;;;4.67;2.87;;;;;;;10.53;100.00;100757.34;6323829;27;20278;-70
2024/04/15 08:02:05;;;;;;;7.17;3.77;;;;;;;10.59;100.00;100747.84;6317471;27;20640;-68
2024/04/15 08:05:25;;;;;;;5.73;3.30;;;;;;;11.06;100.00;100744.31;6373154;27;20265;-69
2024/04/15 08:08:50;;;;;;;7.33;3.17;;;;;;;11.15;100.00;100743.47;6361340;27;20280;-70
2024/04/15 08:12:13;;;;;;;10.30;3.33;;;;;;;10.94;100.00;100729.28;6342626;27;20520;-68
2024/04/15 08:15:33;;;;;;;5.27;2.83;;;;;;;10.99;100.00;100727.84;6353989;27;20265;-78
2024/04/15 08:18:56;;;;;;;4.57;3.07;;;;;;;12.17;100.00;100712.94;6362038;27;20256;-79
2024/04/15 08:22:16;;;;;;;5.23;2.67;;;;;;;12.58;100.00;100707.81;6353583;27;20288;-80
2024/04/15 08:25:41;;;;;;;6.50;2.93;;;;;;;12.27;100.00;100692.97;6372870;27;20277;-80
2024/04/15 08:29:04;;;;;;;4.87;3.27;;;;;;;12.74;100.00;100675.56;6375779;27;20277;-76
2024/04/15 08:32:24;;;;;;;4.93;2.83;;;;;;;13.25;100.00;100684.78;6340486;27;20308;-75
2024/04/15 08:35:46;;;;;;;4.30;2.60;;;;;;;13.65;100.00;100663.38;6345595;27;20291;-74
2024/04/15 08:39:09;;;;;;;8.47;3.20;;;;;;;12.87;100.00;100644.56;6348865;27;20265;-75
2024/04/15 08:42:41;;;;;;;9.17;3.00;;;;;;;13.39;100.00;100640.91;6341836;27;20292;-72
2024/04/15 08:46:07;;;;;;;3.90;2.70;;;;;;;13.80;100.00;100629.25;6325354;27;21079;-71
2024/04/15 08:49:30;;;;;;;6.57;3.07;;;;;;;13.17;100.00;100638.72;6361481;27;20269;-71
2024/04/15 08:52:51;;;;;;;6.73;3.07;;;;;;;13.45;100.00;100618.59;6346893;27;20674;-71
2024/04/15 08:56:16;;;;;;;4.43;2.80;;;;;;;13.63;100.00;100617.50;6350589;27;20274;-70
2024/04/15 08:59:44;;;;;;;5.00;2.87;;;;;;;13.85;100.00;100613.34;6349651;27;20284;-70
2024/04/15 09:03:07;;;;;;;5.17;2.87;;;;;;;12.75;100.00;100606.91;6356308;27;20260;-70
2024/04/15 09:06:33;;;;;;;6.63;3.17;;;;;;;12.52;100.00;100605.69;6341980;27;20336;-71
2024/04/15 09:09:56;;;;;;;3.23;2.63;;;;;;;13.05;100.00;100604.81;6354787;27;20277;-70
2024/04/15 09:13:19;;;;;;;3.70;2.30;;;;;;;12.49;100.00;100610.56;6364043;27;20315;-70
2024/04/15 09:16:45;;;;;;;8.07;3.27;;;;;;;12.31;100.00;100610.56;6353424;27;20265;-71
2024/04/15 09:20:09;;;;;;;3.40;2.70;;;;;;;12.24;100.00;100611.34;6353392;27;20265;-71
2024/04/15 09:23:29;;;;;;;4.93;2.97;;;;;;;12.21;100.00;100607.09;6360742;27;20265;-71
2024/04/15 09:26:53;;;;;;;4.40;2.10;;;;;;;11.98;100.00;100605.81;6372664;27;20316;-68
2024/04/15 09:30:16;;;;;;;10.53;2.90;;;;;;;12.57;100.00;100600.69;6359856;27;20699;-70
2024/04/15 09:33:38;;;;;;;7.63;2.67;;;;;;;12.83;100.00;100598.84;6360902;27;20348;-70
2024/04/15 09:37:02;;;;;;;2.43;1.60;;;;;;;12.58;100.00;100594.25;6356598;27;20276;-70
2024/04/15 09:40:25;;;;;;;3.80;2.57;;;;;;;13.12;100.00;100586.94;6349683;27;20273;-69
2024/04/15 09:43:48;;;;;;;6.00;2.33;;;;;;;13.30;100.00;100576.88;6343351;27;20284;-69
2024/04/15 09:47:12;;;;;;;4.17;2.30;;;;;;;12.82;100.00;100578.25;6346176;27;20265;-69
2024/04/15 09:50:42;;;;;;;4.83;2.40;;;;;;;13.41;100.00;100565.78;6356550;27;20268;-69
2024/04/15 09:54:08;;;;;;;2.30;2.10;;;;;;;12.70;100.00;100560.53;6361627;27;20655;-70
2024/04/15 09:57:39;;;;;;;2.90;1.97;;;;;;;12.84;100.00;100532.94;6350905;27;20358;-69
2024/04/15 10:01:03;;;;;;;5.17;2.50;;;;;;;12.86;100.00;100508.41;6354002;27;20261;-69
2024/04/15 10:04:26;;;;;;;4.23;2.07;;;;;;;13.59;100.00;100494.25;6363335;27;20273;-71
2024/04/15 10:07:53;;;;;;;3.97;2.53;;;;;;;13.48;100.00;100488.28;6351620;27;20955;-70
2024/04/15 10:11:16;;;;;;;3.03;1.83;;;;;;;13.55;100.00;100464.94;6353104;27;20672;-70
2024/04/15 10:14:38;;;;;;;3.37;2.07;;;;;;;13.63;100.00;100452.28;6364331;27;20273;-70
2024/04/15 10:18:01;;;;;;;2.83;2.03;;;;;;;14.05;100.00;100449.44;6350398;27;20269;-70
2024/04/15 10:21:24;;;;;;;4.43;2.40;;;;;;;13.86;100.00;100429.94;6347051;27;20372;-70
2024/04/15 10:24:47;;;;;;;3.77;2.17;;;;;;;13.94;100.00;100417.25;6344746;27;20628;-70
2024/04/15 10:28:11;;;;;;;3.87;2.13;;;;;;;14.17;97.83;100420.13;6350978;27;20261;-72
2024/04/15 10:31:33;;;;;;;5.10;2.80;;;;;;;13.20;100.00;100424.56;6348451;27;20273;-71
2024/04/15 10:34:56;;;;;;;3.27;1.97;;;;;;;13.05;100.00;100416.22;6360846;27;20269;-69
2024/04/15 10:38:16;;;;;;;3.33;1.70;;;;;;;13.64;99.04;100401.66;6351740;27;20278;-72
2024/04/15 10:41:42;;;;;;;1.70;1.60;;;;;;;13.48;97.73;100390.78;6317462;27;20321;-70
2024/04/15 10:45:04;;;;;;;3.33;1.70;;;;;;;13.43;95.15;100393.97;6354011;27;24183;-70
2024/04/15 10:48:26;;;;;;;7.50;2.87;;;;;;;13.36;97.19;100402.94;6345145;27;23308;-68
2024/04/15 10:51:48;;;;;;;5.10;2.80;;;;;;;13.14;96.91;100388.16;6364079;27;20280;-69
2024/04/15 10:55:08;;;;;;;5.47;3.30;;;;;;;12.92;98.69;100380.63;6314164;27;20258;-68
2024/04/15 10:58:33;;;;;;;3.60;1.97;;;;;;;13.14;99.95;100369.22;6318643;27;20261;-68
2024/04/15 11:01:53;;;;;;;3.10;1.87;;;;;;;13.15;99.20;100360.09;6350980;27;20264;-69
2024/04/15 11:05:17;;;;;;;3.40;2.30;;;;;;;13.29;95.88;100355.88;6339193;27;20280;-70
2024/04/15 11:08:36;;;;;;;3.33;2.27;;;;;;;13.38;92.75;100338.66;6360335;27;20383;-66
2024/04/15 11:12:00;;;;;;;3.40;2.37;;;;;;;13.57;93.29;100325.66;6371422;27;20257;-66
2024/04/15 11:15:26;;;;;;;1.80;1.50;;;;;;;14.51;89.34;100309.59;6357435;27;20293;-68
2024/04/15 11:18:48;;;;;;;3.83;2.10;;;;;;;14.36;84.30;100312.19;6358880;27;21508;-69
2024/04/15 11:22:09;;;;;;;3.20;2.10;;;;;;;13.74;85.54;100307.53;6336402;27;20269;-70
2024/04/15 11:25:31;;;;;;;3.03;2.20;;;;;;;13.46;88.22;100307.00;6340620;27;20270;-68
2024/04/15 11:28:51;;;;;;;3.07;1.93;;;;;;;13.42;88.45;100293.97;6354930;27;20296;-69
2024/04/15 11:32:17;;;;;;;4.47;2.67;;;;;;;13.04;88.29;100292.75;6330675;27;20261;-70
2024/04/15 11:35:48;;;;;;;2.70;2.27;;;;;;;13.10;88.69;100280.41;6347034;27;20268;-69
2024/04/15 11:39:11;;;;;;;2.10;1.70;;;;;;;13.61;88.44;100253.88;6357658;27;20298;-68
2024/04/15 11:42:33;;;;;;;2.30;2.10;;;;;;;13.73;85.87;100248.91;6345361;27;20340;-73
2024/04/15 11:45:55;;;;;;;2.80;2.20;;;;;;;13.78;86.36;100230.31;6341377;27;20323;-74
2024/04/15 11:49:20;;;;;;;3.50;2.10;;;;;;;13.71;88.43;100232.00;6353211;27;20269;-72
2024/04/15 11:52:40;;;;;;;3.97;2.00;;;;;;;13.21;91.15;100221.38;6346322;27;20266;-72
2024/04/15 11:56:03;;;;;;;3.17;2.43;;;;;;;13.20;94.84;100213.44;6348097;27;20268;-74
2024/04/15 11:59:22;;;;;;;5.63;2.30;;;;;;;13.25;93.93;100205.63;6352334;27;20269;-72
2024/04/15 12:02:46;;;;;;;3.70;2.10;;;;;;;13.33;92.35;100197.53;6342359;27;20478;-72
2024/04/15 12:06:12;;;;;;;4.93;3.03;;;;;;;13.05;93.39;100183.50;6345929;27;20276;-72
2024/04/15 12:09:35;;;;;;;4.60;2.73;;;;;;;12.93;92.87;100170.44;6316844;27;20650;-71
2024/04/15 12:12:57;;;;;;;3.10;2.73;;;;;;;12.74;93.28;100169.75;6344173;27;20265;-74
2024/04/15 12:16:17;;;;;;;4.50;2.40;;;;;;;12.79;93.38;100140.34;6331011;27;20285;-78
2024/04/15 12:19:39;;;;;;;10.07;3.47;;;;;;;13.02;96.34;100147.75;6358090;27;20264;-73
2024/04/15 12:23:02;;;;;;;4.53;2.33;;;;;;;12.85;95.09;100157.75;6339036;27;20273;-72
2024/04/15 12:26:24;;;;;;;6.20;2.47;;;;;;;12.60;95.36;100137.94;6344283;27;20261;-70
2024/04/15 12:29:46;;;;;;;5.17;3.03;;;;;;;12.56;97.14;100133.88;6350896;27;20261;-69
2024/04/15 12:33:08;;;;;;;2.73;1.90;;;;;;;12.56;98.75;100114.97;6354642;27;20278;-68
2024/04/15 12:36:31;;;;;;;3.40;2.20;;;;;;;13.00;99.04;100107.34;6352562;27;20277;-68
2024/04/15 12:39:57;;;;;;;2.23;2.03;;;;;;;12.99;97.97;100096.72;6355054;27;20559;-68
2024/04/15 12:43:20;;;;;;;5.53;2.70;;;;;;;13.56;96.83;100092.88;6373157;27;20293;-70
2024/04/15 12:46:39;;;;;;;13.87;2.47;;;;;;;13.69;94.94;100074.22;6345546;27;20911;-69
2024/04/15 12:50:03;;;;;;;4.97;2.60;;;;;;;13.41;94.94;100072.97;6356501;27;20261;-69
2024/04/15 12:53:23;;;;;;;4.40;3.13;;;;;;;13.33;94.80;100075.72;6355978;27;20281;-68
2024/04/15 12:56:48;;;;;;;4.73;3.07;;;;;;;12.87;95.16;100062.91;6356885;27;20284;-69
2024/04/15 13:00:10;;;;;;;3.10;2.70;;;;;;;13.01;96.10;100065.75;6343498;27;20274;-68
2024/04/15 13:03:32;;;;;;;3.10;2.67;;;;;;;12.65;95.97;100059.03;6356960;27;20273;-68
2024/04/15 13:06:52;;;;;;;4.60;3.60;;;;;;;12.95;97.07;100057.50;6352491;27;20613;-69
2024/04/15 13:10:15;;;;;;;7.50;3.97;;;;;;;13.06;98.85;100032.81;6344336;27;20265;-69
2024/04/15 13:13:38;;;;;;;4.50;3.33;;;;;;;13.15;97.99;100021.78;6362660;27;22622;-69
2024/04/15 13:17:01;;;;;;;8.93;3.97;;;;;;;13.64;95.35;100011.63;6334562;27;20341;-69
2024/04/15 13:20:22;;;;;;;9.23;3.87;;;;;;;13.40;96.98;100006.31;6351212;27;20285;-72
2024/04/15 13:23:44;;;;;;;3.83;3.33;;;;;;;13.15;95.17;100002.00;6357533;27;20467;-72
2024/04/15 13:27:05;;;;;;;4.90;3.57;;;;;;;13.10;94.21;99983.56;6346457;27;22558;-69
2024/04/15 13:30:31;;;;;;;5.23;3.57;;;;;;;13.49;92.62;99978.19;6340635;27;20285;-67
2024/04/15 13:33:54;;;;;;;6.43;3.67;;;;;;;14.09;88.90;99962.03;6340793;27;20278;-67
2024/04/15 13:37:17;;;;;;;5.87;3.20;;;;;;;14.03;88.10;99944.66;6351893;27;20264;-69
2024/04/15 13:40:39;;;;;;;4.63;3.17;;;;;;;13.78;91.59;99945.84;6341835;27;20332;-69
2024/04/15 13:44:02;;;;;;;5.67;3.37;;;;;;;13.60;94.67;99935.28;6364534;27;20261;-69
2024/04/15 13:47:28;;;;;;;7.77;3.40;;;;;;;13.36;98.42;99921.03;6344248;27;20657;-69
2024/04/15 13:50:47;;;;;;;8.60;3.37;;;;;;;13.60;100.00;99923.63;6344811;27;20293;-69
2024/04/15 13:54:10;;;;;;;5.70;3.40;;;;;;;15.33;95.57;99911.59;6364722;27;20273;-70
2024/04/15 13:57:30;;;;;;;3.80;3.50;;;;;;;14.17;95.17;99908.63;6350647;27;20317;-71
2024/04/15 14:00:55;;;;;;;5.13;3.40;;;;;;;13.90;98.31;99900.19;6348396;27;20277;-71
2024/04/15 14:04:21;;;;;;;4.30;3.93;;;;;;;13.46;100.00;99892.72;6359765;27;20523;-70
2024/04/15 14:07:44;;;;;;;6.07;3.77;;;;;;;13.40;100.00;99871.78;6351575;27;21254;-70
2024/04/15 14:11:08;;;;;;;5.40;3.67;;;;;;;13.17;100.00;99867.34;6347917;27;21198;-71
2024/04/15 14:14:31;;;;;;;4.77;3.77;;;;;;;13.28;100.00;99865.09;6361042;27;20315;-70
2024/04/15 14:17:55;;;;;;;4.37;3.20;;;;;;;13.20;100.00;99856.19;6341805;27;20773;-69
2024/04/15 14:21:17;;;;;;;8.27;3.30;;;;;;;13.42;100.00;99858.91;6344089;27;20591;-70
2024/04/15 14:24:40;;;;;;;8.33;4.20;;;;;;;13.14;100.00;99849.59;6365418;27;20265;-70
2024/04/15 14:28:02;;;;;;;6.43;5.00;;;;;;;13.00;100.00;99853.03;6345931;27;20286;-70
2024/04/15 14:31:25;;;;;;;7.17;4.23;;;;;;;12.72;100.00;99871.56;6349257;27;20293;-69
2024/04/15 14:34:44;;;;;;;9.40;5.67;;;;;;;12.44;100.00;99832.47;6360202;27;20512;-70
2024/04/15 14:38:10;;;;;;;5.53;5.10;;;;;;;12.61;100.00;99814.31;6354754;27;20273;-71
2024/04/15 14:41:32;;;;;;;8.10;6.60;;;;;;;13.06;100.00;99811.75;6349338;27;20270;-70
2024/04/15 14:44:52;;;;;;;6.17;5.10;;;;;;;13.02;100.00;99809.53;6359438;27;20268;-69
2024/04/15 14:48:14;;;;;;;6.23;4.90;;;;;;;13.34;100.00;99790.44;6361210;27;20265;-72
2024/04/15 14:51:37;;;;;;;7.77;6.13;;;;;;;13.67;100.00;99785.59;6353798;27;20273;-73
2024/04/15 14:55:02;;;;;;;7.27;6.20;;;;;;;13.25;100.00;99786.09;6360255;27;20332;-72
2024/04/15 14:58:23;;;;;;;6.97;6.27;;;;;;;13.31;100.00;99785.38;6370038;27;20671;-72
2024/04/15 15:01:46;;;;;;;8.47;5.53;;;;;;;13.35;100.00;99775.91;6338002;27;20619;-72
2024/04/15 15:05:06;;;;;;;5.47;4.93;;;;;;;13.08;100.00;99779.94;6349182;27;20271;-71
2024/04/15 15:08:28;;;;;;;5.67;5.17;;;;;;;13.00;100.00;99762.88;6361977;27;20273;-72
2024/04/15 15:11:53;;;;;;;7.73;5.57;;;;;;;12.90;100.00;99759.56;6352510;27;20273;-71
2024/04/15 15:15:16;;;;;;;4.83;4.33;;;;;;;12.91;100.00;99753.16;6352169;27;20264;-71
2024/04/15 15:18:38;;;;;;;9.53;4.63;;;;;;;12.81;100.00;99753.38;6362046;27;20268;-71
2024/04/15 15:21:58;;;;;;;3.40;3.20;;;;;;;12.80;100.00;99751.69;6349508;27;20286;-71
2024/04/15 15:25:21;;;;;;;6.63;4.20;;;;;;;12.93;100.00;99737.59;6352338;27;20281;-71
2024/04/15 15:28:43;;;;;;;5.27;3.23;;;;;;;12.93;100.00;99743.00;6359708;27;20274;-72
2024/04/15 15:32:07;;;;;;;4.10;3.80;;;;;;;12.83;100.00;99745.91;6347524;27;20280;-71
2024/04/15 15:35:29;;;;;;;4.37;3.43;;;;;;;12.91;100.00;99723.41;6364377;27;20664;-71
2024/04/15 15:38:52;;;;;;;3.80;3.50;;;;;;;13.01;100.00;99724.00;6363817;27;20659;-72